createdAt,value
2022-08-05T00:15:54.786Z,62.9
2022-08-05T00:34:43.074Z,64
2022-08-05T00:55:20.743Z,62.8
2022-08-05T01:13:22.331Z,63.7
2022-08-05T01:34:18.759Z,64.5
2022-08-05T01:54:32.627Z,63.9
2022-08-05T02:34:04.366Z,64.8
2022-08-05T02:54:34.693Z,65
2022-08-05T03:14:49.835Z,62.6
2022-08-05T03:34:30.600Z,58.3
2022-08-05T03:55:51.510Z,57.9
2022-08-05T04:15:19.255Z,62.6
2022-08-05T04:34:17.806Z,63.6
2022-08-05T04:54:50.589Z,63.8
2022-08-05T05:15:12.493Z,63.8
2022-08-05T05:35:24.249Z,65.3
2022-08-05T05:55:13.109Z,63.7
2022-08-05T06:14:06.157Z,63.5
2022-08-05T06:34:59.252Z,62
2022-08-05T06:54:20.355Z,61.5
2022-08-05T07:14:03.110Z,58.8
2022-08-05T07:35:56.195Z,55.7
2022-08-05T07:54:20.879Z,52.7
2022-08-05T08:14:26.295Z,52.1
2022-08-05T08:35:21.777Z,51.6
2022-08-05T08:54:02.538Z,48.5
2022-08-05T09:15:15.075Z,47.1
2022-08-05T09:34:45.875Z,45.1
2022-08-05T09:54:03.285Z,41.5
2022-08-05T10:15:26.601Z,40.4
2022-08-05T10:35:22.721Z,37.3
2022-08-05T10:55:04.900Z,35.5
2022-08-05T11:14:58.068Z,37.5
2022-08-05T11:35:26.223Z,38.6
2022-08-05T11:56:20.441Z,37.4
2022-08-05T12:34:28.672Z,32
2022-08-05T12:54:48.215Z,30.3
2022-08-05T13:14:59.282Z,31.3
2022-08-05T13:34:59.727Z,30.4
2022-08-05T13:54:57.638Z,30.4
2022-08-05T14:13:57.013Z,32.8
2022-08-05T14:34:52.860Z,35.8
2022-08-05T14:55:25.708Z,37.7
2022-08-05T15:15:15.200Z,40.5
2022-08-05T15:34:52.874Z,43.5
2022-08-05T15:55:06.871Z,46.7
2022-08-05T16:14:41.774Z,48.1
2022-08-05T16:55:01.456Z,49.6
2022-08-05T17:13:51.418Z,50.4
2022-08-05T17:35:20.749Z,58.3
2022-08-05T17:55:07.956Z,61.6
2022-08-05T18:15:20.372Z,65
2022-08-05T18:34:30.112Z,67.4
2022-08-05T18:55:26.923Z,67.7
2022-08-05T19:15:00.123Z,66
2022-08-05T19:35:12.632Z,64.4
2022-08-05T19:54:45.677Z,61.7
2022-08-05T20:15:05.678Z,60.8
2022-08-05T20:35:19.656Z,62.3
2022-08-05T20:54:55.472Z,90
2022-08-05T21:15:00.959Z,96.6
2022-08-05T21:33:50.530Z,98
2022-08-05T21:54:27.764Z,98.7
2022-08-05T22:14:34.744Z,99
2022-08-05T22:34:28.576Z,99.5
2022-08-05T22:54:46.682Z,99.7
2022-08-05T23:15:36.786Z,100
2022-08-05T23:34:32.038Z,100
2022-08-05T23:55:10.901Z,99.7
